sensor_id;sensor_type;location;lat;lon;timestamp;pressure;altitude;pressure_sealevel;temperature;humidity
75775;BME280;64505;51.458;7.556;2023-11-19T00:00:15;99204.66;;;9.32;100.00
75775;BME280;64505;51.458;7.556;2023-11-19T00:02:16;99201.34;;;9.36;100.00
75775;BME280;64505;51.458;7.556;2023-11-19T00:04:18;99186.06;;;9.38;100.00
75775;BME280;64505;51.458;7.556;2023-11-19T00:06:19;99182.41;;;9.39;100.00
75775;BME280;64505;51.458;7.556;2023-11-19T00:08:21;99179.31;;;9.43;100.00
75775;BME280;64505;51.458;7.556;2023-11-19T00:10:22;99173.78;;;9.44;100.00
75775;BME280;64505;51.458;7.556;2023-11-19T00:12:24;99166.13;;;9.43;100.00
75775;BME280;64505;51.458;7.556;2023-11-19T00:14:26;99167.50;;;9.45;100.00
75775;BME280;64505;51.458;7.556;2023-11-19T00:16:28;99173.72;;;9.51;100.00
75775;BME280;64505;51.458;7.556;2023-11-19T00:18:29;99154.78;;;9.54;100.00
75775;BME280;64505;51.458;7.556;2023-11-19T00:20:31;99159.81;;;9.55;100.00
75775;BME280;64505;51.458;7.556;2023-11-19T00:22:33;99174.97;;;9.60;100.00
75775;BME280;64505;51.458;7.556;2023-11-19T00:24:35;99187.47;;;9.64;100.00
75775;BME280;64505;51.458;7.556;2023-11-19T00:26:36;99174.28;;;9.64;100.00
75775;BME280;64505;51.458;7.556;2023-11-19T00:28:37;99181.53;;;9.69;100.00
75775;BME280;64505;51.458;7.556;2023-11-19T00:30:40;99179.91;;;9.68;100.00
75775;BME280;64505;51.458;7.556;2023-11-19T00:32:44;99178.16;;;9.73;100.00
75775;BME280;64505;51.458;7.556;2023-11-19T00:34:46;99170.16;;;9.80;100.00
75775;BME280;64505;51.458;7.556;2023-11-19T00:36:49;99169.22;;;9.74;100.00
75775;BME280;64505;51.458;7.556;2023-11-19T00:38:51;99177.50;;;9.78;100.00
75775;BME280;64505;51.458;7.556;2023-11-19T00:40:54;99178.19;;;9.85;100.00
75775;BME280;64505;51.458;7.556;2023-11-19T00:42:55;99182.66;;;9.84;100.00
75775;BME280;64505;51.458;7.556;2023-11-19T00:44:59;99182.91;;;9.83;100.00
75775;BME280;64505;51.458;7.556;2023-11-19T00:47:00;99179.09;;;9.91;100.00
75775;BME280;64505;51.458;7.556;2023-11-19T00:49:02;99179.91;;;9.91;100.00
75775;BME280;64505;51.458;7.556;2023-11-19T00:51:04;99176.81;;;9.94;100.00
75775;BME280;64505;51.458;7.556;2023-11-19T00:53:05;99179.53;;;9.99;100.00
75775;BME280;64505;51.458;7.556;2023-11-19T00:55:09;99170.03;;;9.98;100.00
75775;BME280;64505;51.458;7.556;2023-11-19T00:57:11;99158.75;;;10.03;100.00
75775;BME280;64505;51.458;7.556;2023-11-19T00:59:12;99159.91;;;10.07;100.00
75775;BME280;64505;51.458;7.556;2023-11-19T01:01:15;99154.47;;;10.13;100.00
75775;BME280;64505;51.458;7.556;2023-11-19T01:03:16;99159.34;;;10.16;100.00
75775;BME280;64505;51.458;7.556;2023-11-19T01:05:19;99161.84;;;10.23;100.00
75775;BME280;64505;51.458;7.556;2023-11-19T01:07:23;99161.72;;;10.29;100.00
75775;BME280;64505;51.458;7.556;2023-11-19T01:09:25;99148.84;;;10.33;100.00
75775;BME280;64505;51.458;7.556;2023-11-19T01:11:27;99153.91;;;10.34;100.00
75775;BME280;64505;51.458;7.556;2023-11-19T01:13:29;99137.31;;;10.39;100.00
75775;BME280;64505;51.458;7.556;2023-11-19T01:15:33;99145.09;;;10.46;100.00
75775;BME280;64505;51.458;7.556;2023-11-19T01:17:37;99142.25;;;10.47;100.00
75775;BME280;64505;51.458;7.556;2023-11-19T01:19:39;99140.16;;;10.49;100.00
75775;BME280;64505;51.458;7.556;2023-11-19T01:21:40;99130.72;;;10.53;100.00
75775;BME280;64505;51.458;7.556;2023-11-19T01:23:42;99132.56;;;10.53;100.00
75775;BME280;64505;51.458;7.556;2023-11-19T01:25:44;99132.09;;;10.56;100.00
75775;BME280;64505;51.458;7.556;2023-11-19T01:27:46;99144.38;;;10.62;100.00
75775;BME280;64505;51.458;7.556;2023-11-19T01:29:47;99147.81;;;10.62;100.00
75775;BME280;64505;51.458;7.556;2023-11-19T01:31:49;99144.69;;;10.65;100.00
75775;BME280;64505;51.458;7.556;2023-11-19T01:33:52;99150.53;;;10.67;100.00
75775;BME280;64505;51.458;7.556;2023-11-19T01:35:54;99149.75;;;10.67;100.00
75775;BME280;64505;51.458;7.556;2023-11-19T01:37:55;99152.97;;;10.69;100.00
75775;BME280;64505;51.458;7.556;2023-11-19T01:39:57;99150.31;;;10.69;100.00
75775;BME280;64505;51.458;7.556;2023-11-19T01:42:00;99152.41;;;10.67;100.00
75775;BME280;64505;51.458;7.556;2023-11-19T01:44:01;99155.38;;;10.70;100.00
75775;BME280;64505;51.458;7.556;2023-11-19T01:46:04;99156.63;;;10.68;100.00
75775;BME280;64505;51.458;7.556;2023-11-19T01:48:07;99141.09;;;10.71;100.00
75775;BME280;64505;51.458;7.556;2023-11-19T01:50:09;99137.75;;;10.76;100.00
75775;BME280;64505;51.458;7.556;2023-11-19T01:52:10;99133.44;;;10.70;100.00
75775;BME280;64505;51.458;7.556;2023-11-19T01:54:12;99130.03;;;10.74;100.00
75775;BME280;64505;51.458;7.556;2023-11-19T01:56:15;99127.66;;;10.73;100.00
75775;BME280;64505;51.458;7.556;2023-11-19T01:58:17;99119.78;;;10.78;100.00
75775;BME280;64505;51.458;7.556;2023-11-19T02:00:19;99130.63;;;10.76;100.00
75775;BME280;64505;51.458;7.556;2023-11-19T02:02:21;99144.19;;;10.80;100.00
75775;BME280;64505;51.458;7.556;2023-11-19T02:04:25;99138.31;;;10.78;100.00
75775;BME280;64505;51.458;7.556;2023-11-19T02:06:27;99129.81;;;10.76;100.00
75775;BME280;64505;51.458;7.556;2023-11-19T02:08:29;99116.13;;;10.79;100.00
75775;BME280;64505;51.458;7.556;2023-11-19T02:10:31;99117.25;;;10.83;100.00
75775;BME280;64505;51.458;7.556;2023-11-19T02:12:33;99115.56;;;10.77;100.00
75775;BME280;64505;51.458;7.556;2023-11-19T02:14:35;99118.75;;;10.79;100.00
75775;BME280;64505;51.458;7.556;2023-11-19T02:16:36;99115.63;;;10.82;100.00
75775;BME280;64505;51.458;7.556;2023-11-19T02:18:38;99111.16;;;10.82;100.00
75775;BME280;64505;51.458;7.556;2023-11-19T02:20:40;99107.25;;;10.85;100.00
75775;BME280;64505;51.458;7.556;2023-11-19T02:22:42;99119.19;;;10.88;100.00
75775;BME280;64505;51.458;7.556;2023-11-19T02:24:45;99114.69;;;10.88;100.00
75775;BME280;64505;51.458;7.556;2023-11-19T02:29:01;99106.50;;;10.90;100.00
75775;BME280;64505;51.458;7.556;2023-11-19T02:31:08;99117.41;;;10.93;100.00
75775;BME280;64505;51.458;7.556;2023-11-19T02:33:13;99110.78;;;10.91;100.00
75775;BME280;64505;51.458;7.556;2023-11-19T02:35:14;99094.19;;;10.95;100.00
75775;BME280;64505;51.458;7.556;2023-11-19T02:37:16;99086.81;;;10.97;100.00
75775;BME280;64505;51.458;7.556;2023-11-19T02:39:23;99070.94;;;10.97;100.00
75775;BME280;64505;51.458;7.556;2023-11-19T02:41:25;99071.03;;;11.02;100.00
75775;BME280;64505;51.458;7.556;2023-11-19T02:43:26;99086.09;;;11.02;100.00
75775;BME280;64505;51.458;7.556;2023-11-19T02:45:28;99077.34;;;11.01;100.00
75775;BME280;64505;51.458;7.556;2023-11-19T02:47:35;99084.75;;;10.99;100.00
75775;BME280;64505;51.458;7.556;2023-11-19T02:49:37;99082.09;;;10.99;100.00
75775;BME280;64505;51.458;7.556;2023-11-19T02:51:38;99085.28;;;11.01;100.00
75775;BME280;64505;51.458;7.556;2023-11-19T02:53:40;99072.38;;;11.05;100.00
75775;BME280;64505;51.458;7.556;2023-11-19T02:55:42;99073.28;;;11.10;100.00
75775;BME280;64505;51.458;7.556;2023-11-19T02:57:50;99069.25;;;11.08;100.00
75775;BME280;64505;51.458;7.556;2023-11-19T02:59:54;99079.59;;;11.09;100.00
75775;BME280;64505;51.458;7.556;2023-11-19T03:01:57;99083.06;;;11.10;100.00
75775;BME280;64505;51.458;7.556;2023-11-19T03:04:01;99079.81;;;11.08;100.00
75775;BME280;64505;51.458;7.556;2023-11-19T03:06:05;99066.44;;;11.14;100.00
75775;BME280;64505;51.458;7.556;2023-11-19T03:08:06;99058.03;;;11.17;100.00
75775;BME280;64505;51.458;7.556;2023-11-19T03:10:08;99061.78;;;11.21;100.00
75775;BME280;64505;51.458;7.556;2023-11-19T03:12:10;99056.41;;;11.16;100.00
75775;BME280;64505;51.458;7.556;2023-11-19T03:14:12;99050.97;;;11.23;100.00
75775;BME280;64505;51.458;7.556;2023-11-19T03:16:13;99064.00;;;11.29;100.00
75775;BME280;64505;51.458;7.556;2023-11-19T03:18:15;99060.25;;;11.25;100.00
75775;BME280;64505;51.458;7.556;2023-11-19T03:20:17;99060.09;;;11.32;100.00
75775;BME280;64505;51.458;7.556;2023-11-19T03:22:18;99065.41;;;11.32;100.00
75775;BME280;64505;51.458;7.556;2023-11-19T03:24:20;99054.81;;;11.32;100.00
75775;BME280;64505;51.458;7.556;2023-11-19T03:26:22;99057.78;;;11.35;100.00
75775;BME280;64505;51.458;7.556;2023-11-19T03:28:23;99056.38;;;11.33;100.00
75775;BME280;64505;51.458;7.556;2023-11-19T03:30:25;99052.78;;;11.39;100.00
75775;BME280;64505;51.458;7.556;2023-11-19T03:32:35;99050.38;;;11.38;100.00
75775;BME280;64505;51.458;7.556;2023-11-19T03:34:37;99040.91;;;11.42;100.00
75775;BME280;64505;51.458;7.556;2023-11-19T03:36:38;99027.09;;;11.40;100.00
75775;BME280;64505;51.458;7.556;2023-11-19T03:38:41;99025.41;;;11.50;100.00
75775;BME280;64505;51.458;7.556;2023-11-19T03:40:43;99035.91;;;11.45;100.00
75775;BME280;64505;51.458;7.556;2023-11-19T03:42:46;99047.84;;;11.48;100.00
75775;BME280;64505;51.458;7.556;2023-11-19T03:44:47;99049.47;;;11.49;100.00
75775;BME280;64505;51.458;7.556;2023-11-19T03:46:50;99045.03;;;11.54;100.00
75775;BME280;64505;51.458;7.556;2023-11-19T03:48:52;99046.41;;;11.57;100.00
75775;BME280;64505;51.458;7.556;2023-11-19T03:50:53;99053.53;;;11.56;100.00
75775;BME280;64505;51.458;7.556;2023-11-19T03:52:55;99051.69;;;11.57;100.00
75775;BME280;64505;51.458;7.556;2023-11-19T03:54:57;99054.72;;;11.65;100.00
75775;BME280;64505;51.458;7.556;2023-11-19T03:56:58;99052.00;;;11.60;100.00
75775;BME280;64505;51.458;7.556;2023-11-19T03:59:02;99044.38;;;11.64;100.00
75775;BME280;64505;51.458;7.556;2023-11-19T04:01:11;99050.09;;;11.56;100.00
75775;BME280;64505;51.458;7.556;2023-11-19T04:03:16;99047.53;;;11.61;100.00
75775;BME280;64505;51.458;7.556;2023-11-19T04:05:17;99046.41;;;11.57;100.00
75775;BME280;64505;51.458;7.556;2023-11-19T04:07:20;99056.91;;;11.52;100.00
75775;BME280;64505;51.458;7.556;2023-11-19T04:09:22;99053.97;;;11.48;100.00
75775;BME280;64505;51.458;7.556;2023-11-19T04:11:23;99055.06;;;11.52;100.00
75775;BME280;64505;51.458;7.556;2023-11-19T04:13:25;99045.47;;;11.46;100.00
75775;BME280;64505;51.458;7.556;2023-11-19T04:15:26;99053.03;;;11.38;100.00
75775;BME280;64505;51.458;7.556;2023-11-19T04:17:28;99057.28;;;11.39;100.00
75775;BME280;64505;51.458;7.556;2023-11-19T04:19:29;99032.66;;;11.38;100.00
75775;BME280;64505;51.458;7.556;2023-11-19T04:21:34;99060.31;;;11.30;100.00
75775;BME280;64505;51.458;7.556;2023-11-19T04:23:38;99048.22;;;11.34;100.00
75775;BME280;64505;51.458;7.556;2023-11-19T04:25:39;99054.72;;;11.27;100.00
75775;BME280;64505;51.458;7.556;2023-11-19T04:27:41;99056.75;;;11.20;100.00
75775;BME280;64505;51.458;7.556;2023-11-19T04:29:43;99068.03;;;11.32;100.00
75775;BME280;64505;51.458;7.556;2023-11-19T04:31:44;99052.06;;;11.27;100.00
75775;BME280;64505;51.458;7.556;2023-11-19T04:33:46;99050.81;;;11.13;100.00
75775;BME280;64505;51.458;7.556;2023-11-19T04:35:48;99046.47;;;11.23;100.00
75775;BME280;64505;51.458;7.556;2023-11-19T04:37:49;99044.31;;;11.20;100.00
75775;BME280;64505;51.458;7.556;2023-11-19T04:39:51;99053.19;;;11.14;100.00
75775;BME280;64505;51.458;7.556;2023-11-19T04:41:53;99036.13;;;11.05;100.00
75775;BME280;64505;51.458;7.556;2023-11-19T04:43:54;99045.13;;;11.21;100.00
75775;BME280;64505;51.458;7.556;2023-11-19T04:45:56;99042.06;;;11.12;100.00
75775;BME280;64505;51.458;7.556;2023-11-19T04:47:58;99051.84;;;11.12;100.00
75775;BME280;64505;51.458;7.556;2023-11-19T04:50:00;99037.44;;;11.03;100.00
75775;BME280;64505;51.458;7.556;2023-11-19T04:52:01;99041.97;;;11.07;100.00
75775;BME280;64505;51.458;7.556;2023-11-19T04:54:04;99046.81;;;10.94;100.00
75775;BME280;64505;51.458;7.556;2023-11-19T04:56:12;99048.25;;;11.01;100.00
75775;BME280;64505;51.458;7.556;2023-11-19T04:58:14;99053.22;;;10.98;100.00
75775;BME280;64505;51.458;7.556;2023-11-19T05:00:16;99053.63;;;10.90;100.00
75775;BME280;64505;51.458;7.556;2023-11-19T05:02:18;99048.41;;;11.11;100.00
75775;BME280;64505;51.458;7.556;2023-11-19T05:04:19;99055.38;;;11.01;100.00
75775;BME280;64505;51.458;7.556;2023-11-19T05:06:21;99055.22;;;10.91;100.00
75775;BME280;64505;51.458;7.556;2023-11-19T05:08:23;99048.31;;;10.90;100.00
75775;BME280;64505;51.458;7.556;2023-11-19T05:10:24;99055.78;;;10.93;100.00
75775;BME280;64505;51.458;7.556;2023-11-19T05:12:26;99054.59;;;10.83;100.00
75775;BME280;64505;51.458;7.556;2023-11-19T05:14:27;99055.22;;;10.91;100.00
75775;BME280;64505;51.458;7.556;2023-11-19T05:16:29;99057.47;;;10.99;100.00
75775;BME280;64505;51.458;7.556;2023-11-19T05:18:31;99064.03;;;10.96;100.00
75775;BME280;64505;51.458;7.556;2023-11-19T05:20:32;99051.28;;;10.93;100.00
75775;BME280;64505;51.458;7.556;2023-11-19T05:22:33;99076.94;;;10.93;100.00
75775;BME280;64505;51.458;7.556;2023-11-19T05:24:35;99066.84;;;10.90;100.00
75775;BME280;64505;51.458;7.556;2023-11-19T05:26:38;99074.22;;;10.88;100.00
75775;BME280;64505;51.458;7.556;2023-11-19T05:28:39;99074.69;;;11.01;100.00
75775;BME280;64505;51.458;7.556;2023-11-19T05:30:41;99058.91;;;11.06;100.00
75775;BME280;64505;51.458;7.556;2023-11-19T05:32:42;99054.81;;;11.15;100.00
75775;BME280;64505;51.458;7.556;2023-11-19T05:34:44;99064.41;;;11.21;100.00
75775;BME280;64505;51.458;7.556;2023-11-19T05:36:49;99061.94;;;11.15;100.00
75775;BME280;64505;51.458;7.556;2023-11-19T05:38:51;99065.47;;;11.04;100.00
75775;BME280;64505;51.458;7.556;2023-11-19T05:40:52;99062.44;;;11.12;100.00
75775;BME280;64505;51.458;7.556;2023-11-19T05:42:54;99071.19;;;11.12;100.00
75775;BME280;64505;51.458;7.556;2023-11-19T05:44:55;99072.69;;;11.08;100.00
75775;BME280;64505;51.458;7.556;2023-11-19T05:46:57;99066.91;;;11.11;100.00
75775;BME280;64505;51.458;7.556;2023-11-19T05:48:58;99066.59;;;11.08;100.00
75775;BME280;64505;51.458;7.556;2023-11-19T05:51:00;99054.59;;;11.17;100.00
75775;BME280;64505;51.458;7.556;2023-11-19T05:53:01;99051.03;;;11.11;100.00
75775;BME280;64505;51.458;7.556;2023-11-19T05:55:03;99069.34;;;11.13;100.00
75775;BME280;64505;51.458;7.556;2023-11-19T05:57:06;99071.50;;;11.16;100.00
75775;BME280;64505;51.458;7.556;2023-11-19T05:59:10;99062.75;;;11.15;100.00
75775;BME280;64505;51.458;7.556;2023-11-19T06:01:17;99060.25;;;11.25;100.00
75775;BME280;64505;51.458;7.556;2023-11-19T06:03:18;99055.69;;;11.21;100.00
75775;BME280;64505;51.458;7.556;2023-11-19T06:05:20;99066.19;;;11.16;100.00
75775;BME280;64505;51.458;7.556;2023-11-19T06:07:21;99050.16;;;11.22;100.00
75775;BME280;64505;51.458;7.556;2023-11-19T06:09:23;99048.22;;;11.18;100.00
75775;BME280;64505;51.458;7.556;2023-11-19T06:11:26;99058.56;;;11.19;100.00
75775;BME280;64505;51.458;7.556;2023-11-19T06:13:28;99054.59;;;11.17;100.00
75775;BME280;64505;51.458;7.556;2023-11-19T06:15:33;99056.16;;;11.18;100.00
75775;BME280;64505;51.458;7.556;2023-11-19T06:17:34;99063.06;;;11.19;100.00
75775;BME280;64505;51.458;7.556;2023-11-19T06:19:37;99053.06;;;11.21;100.00
75775;BME280;64505;51.458;7.556;2023-11-19T06:21:39;99049.34;;;11.22;100.00
75775;BME280;64505;51.458;7.556;2023-11-19T06:23:41;99071.41;;;11.11;100.00
75775;BME280;64505;51.458;7.556;2023-11-19T06:25:42;99072.47;;;11.10;100.00
75775;BME280;64505;51.458;7.556;2023-11-19T06:27:44;99050.50;;;11.09;100.00
75775;BME280;64505;51.458;7.556;2023-11-19T06:29:45;99064.03;;;11.13;100.00
75775;BME280;64505;51.458;7.556;2023-11-19T06:31:47;99065.66;;;11.14;100.00
75775;BME280;64505;51.458;7.556;2023-11-19T06:33:51;99075.44;;;11.13;100.00
75775;BME280;64505;51.458;7.556;2023-11-19T06:35:53;99077.75;;;11.10;100.00
75775;BME280;64505;51.458;7.556;2023-11-19T06:37:55;99066.44;;;11.14;100.00
75775;BME280;64505;51.458;7.556;2023-11-19T06:39:57;99071.34;;;11.06;100.00
75775;BME280;64505;51.458;7.556;2023-11-19T06:41:59;99066.75;;;11.01;100.00
75775;BME280;64505;51.458;7.556;2023-11-19T06:44:01;99075.28;;;11.03;100.00
75775;BME280;64505;51.458;7.556;2023-11-19T06:46:04;99065.88;;;11.12;100.00
75775;BME280;64505;51.458;7.556;2023-11-19T06:48:07;99063.00;;;11.14;100.00
75775;BME280;64505;51.458;7.556;2023-11-19T06:50:08;99067.72;;;11.12;100.00
75775;BME280;64505;51.458;7.556;2023-11-19T06:52:10;99072.84;;;11.18;100.00
75775;BME280;64505;51.458;7.556;2023-11-19T06:54:12;99061.88;;;11.10;100.00
75775;BME280;64505;51.458;7.556;2023-11-19T06:56:23;99073.50;;;11.09;100.00
75775;BME280;64505;51.458;7.556;2023-11-19T06:58:25;99097.63;;;11.12;100.00
75775;BME280;64505;51.458;7.556;2023-11-19T07:00:26;99089.84;;;11.06;100.00
75775;BME280;64505;51.458;7.556;2023-11-19T07:02:28;99112.22;;;10.98;100.00
75775;BME280;64505;51.458;7.556;2023-11-19T07:04:30;99087.13;;;11.01;100.00
75775;BME280;64505;51.458;7.556;2023-11-19T07:06:31;99090.56;;;11.01;100.00
75775;BME280;64505;51.458;7.556;2023-11-19T07:08:35;99100.03;;;10.97;100.00
75775;BME280;64505;51.458;7.556;2023-11-19T07:10:37;99101.31;;;10.95;100.00
75775;BME280;64505;51.458;7.556;2023-11-19T07:12:39;99097.69;;;11.01;100.00
75775;BME280;64505;51.458;7.556;2023-11-19T07:14:41;99108.28;;;11.01;100.00
75775;BME280;64505;51.458;7.556;2023-11-19T07:16:44;99098.69;;;10.95;100.00
75775;BME280;64505;51.458;7.556;2023-11-19T07:18:45;99104.13;;;10.88;100.00
75775;BME280;64505;51.458;7.556;2023-11-19T07:21:11;99110.06;;;10.95;100.00
75775;BME280;64505;51.458;7.556;2023-11-19T07:23:12;99118.81;;;10.96;100.00
75775;BME280;64505;51.458;7.556;2023-11-19T07:25:16;99109.25;;;10.95;100.00
75775;BME280;64505;51.458;7.556;2023-11-19T07:27:17;99118.22;;;10.94;100.00
75775;BME280;64505;51.458;7.556;2023-11-19T07:29:19;99114.59;;;10.83;100.00
75775;BME280;64505;51.458;7.556;2023-11-19T07:31:23;99127.44;;;10.91;100.00
75775;BME280;64505;51.458;7.556;2023-11-19T07:33:25;99122.72;;;10.93;100.00
75775;BME280;64505;51.458;7.556;2023-11-19T07:35:26;99128.16;;;10.86;100.00
75775;BME280;64505;51.458;7.556;2023-11-19T07:37:28;99119.56;;;10.79;100.00
75775;BME280;64505;51.458;7.556;2023-11-19T07:39:29;99130.00;;;10.86;100.00
75775;BME280;64505;51.458;7.556;2023-11-19T07:41:31;99115.19;;;10.85;100.00
75775;BME280;64505;51.458;7.556;2023-11-19T07:43:33;99129.59;;;10.77;100.00
75775;BME280;64505;51.458;7.556;2023-11-19T07:45:34;99129.50;;;10.72;100.00
75775;BME280;64505;51.458;7.556;2023-11-19T07:47:36;99153.78;;;10.69;100.00
75775;BME280;64505;51.458;7.556;2023-11-19T07:49:37;99133.16;;;10.71;100.00
75775;BME280;64505;51.458;7.556;2023-11-19T07:51:39;99134.78;;;10.72;100.00
75775;BME280;64505;51.458;7.556;2023-11-19T07:53:41;99139.38;;;10.77;100.00
75775;BME280;64505;51.458;7.556;2023-11-19T07:55:43;99131.34;;;10.72;100.00
75775;BME280;64505;51.458;7.556;2023-11-19T07:57:45;99146.53;;;10.65;100.00
75775;BME280;64505;51.458;7.556;2023-11-19T07:59:46;99147.34;;;10.65;100.00
75775;BME280;64505;51.458;7.556;2023-11-19T08:01:48;99159.13;;;10.74;100.00
75775;BME280;64505;51.458;7.556;2023-11-19T08:03:49;99162.50;;;10.70;100.00
75775;BME280;64505;51.458;7.556;2023-11-19T08:05:57;99152.16;;;10.68;100.00
75775;BME280;64505;51.458;7.556;2023-11-19T08:07:58;99168.28;;;10.67;100.00
75775;BME280;64505;51.458;7.556;2023-11-19T08:10:00;99154.44;;;10.76;100.00
75775;BME280;64505;51.458;7.556;2023-11-19T08:12:03;99155.13;;;10.72;100.00
75775;BME280;64505;51.458;7.556;2023-11-19T08:14:04;99157.56;;;10.73;100.00
75775;BME280;64505;51.458;7.556;2023-11-19T08:16:06;99162.91;;;10.78;100.00
75775;BME280;64505;51.458;7.556;2023-11-19T08:18:08;99161.00;;;10.74;100.00
75775;BME280;64505;51.458;7.556;2023-11-19T08:20:10;99170.78;;;10.73;100.00
75775;BME280;64505;51.458;7.556;2023-11-19T08:22:12;99174.44;;;10.72;100.00
75775;BME280;64505;51.458;7.556;2023-11-19T08:24:14;99164.91;;;10.71;100.00
75775;BME280;64505;51.458;7.556;2023-11-19T08:26:15;99164.41;;;10.74;100.00
75775;BME280;64505;51.458;7.556;2023-11-19T08:28:21;99168.59;;;10.70;100.00
75775;BME280;64505;51.458;7.556;2023-11-19T08:30:23;99163.97;;;10.77;100.00
75775;BME280;64505;51.458;7.556;2023-11-19T08:32:25;99171.44;;;10.80;100.00
75775;BME280;64505;51.458;7.556;2023-11-19T08:34:27;99181.44;;;10.78;100.00
75775;BME280;64505;51.458;7.556;2023-11-19T08:36:29;99172.13;;;10.76;100.00
75775;BME280;64505;51.458;7.556;2023-11-19T08:38:30;99181.19;;;10.80;100.00
75775;BME280;64505;51.458;7.556;2023-11-19T08:40:32;99183.81;;;10.92;100.00
75775;BME280;64505;51.458;7.556;2023-11-19T08:42:34;99189.41;;;10.95;100.00
75775;BME280;64505;51.458;7.556;2023-11-19T08:44:35;99188.50;;;10.90;100.00
75775;BME280;64505;51.458;7.556;2023-11-19T08:46:37;99172.63;;;10.90;100.00
75775;BME280;64505;51.458;7.556;2023-11-19T08:48:38;99200.06;;;11.00;100.00
75775;BME280;64505;51.458;7.556;2023-11-19T08:50:40;99197.44;;;11.00;100.00
75775;BME280;64505;51.458;7.556;2023-11-19T08:52:42;99175.56;;;11.05;100.00
75775;BME280;64505;51.458;7.556;2023-11-19T08:58:06;99176.38;;;11.22;100.00
75775;BME280;64505;51.458;7.556;2023-11-19T09:00:08;99192.34;;;11.27;100.00
75775;BME280;64505;51.458;7.556;2023-11-19T09:02:09;99198.44;;;11.27;100.00
75775;BME280;64505;51.458;7.556;2023-11-19T09:04:11;99197.47;;;11.33;100.00
75775;BME280;64505;51.458;7.556;2023-11-19T09:06:13;99183.69;;;11.31;100.00
75775;BME280;64505;51.458;7.556;2023-11-19T09:08:14;99192.84;;;11.41;100.00
75775;BME280;64505;51.458;7.556;2023-11-19T09:10:16;99187.84;;;11.44;100.00
75775;BME280;64505;51.458;7.556;2023-11-19T09:12:17;99173.59;;;11.45;100.00
75775;BME280;64505;51.458;7.556;2023-11-19T09:14:19;99183.38;;;11.45;100.00
75775;BME280;64505;51.458;7.556;2023-11-19T09:16:23;99180.41;;;11.41;100.00
75775;BME280;64505;51.458;7.556;2023-11-19T09:18:25;99193.41;;;11.43;100.00
75775;BME280;64505;51.458;7.556;2023-11-19T09:20:27;99194.59;;;11.52;100.00
75775;BME280;64505;51.458;7.556;2023-11-19T09:22:28;99186.97;;;11.55;100.00
75775;BME280;64505;51.458;7.556;2023-11-19T09:24:30;99180.66;;;11.56;100.00
75775;BME280;64505;51.458;7.556;2023-11-19T09:26:31;99196.28;;;11.58;100.00
75775;BME280;64505;51.458;7.556;2023-11-19T09:28:33;99188.31;;;11.58;100.00
75775;BME280;64505;51.458;7.556;2023-11-19T09:30:34;99194.44;;;11.58;100.00
75775;BME280;64505;51.458;7.556;2023-11-19T09:32:35;99198.69;;;11.59;100.00
75775;BME280;64505;51.458;7.556;2023-11-19T09:34:39;99183.78;;;11.53;100.00
75775;BME280;64505;51.458;7.556;2023-11-19T09:36:40;99190.75;;;11.59;100.00
75775;BME280;64505;51.458;7.556;2023-11-19T09:38:45;99180.47;;;11.63;100.00
75775;BME280;64505;51.458;7.556;2023-11-19T09:40:47;99179.44;;;11.64;100.00
75775;BME280;64505;51.458;7.556;2023-11-19T09:42:49;99181.28;;;11.63;100.00
75775;BME280;64505;51.458;7.556;2023-11-19T09:44:51;99187.94;;;11.66;100.00
75775;BME280;64505;51.458;7.556;2023-11-19T09:46:53;99178.94;;;11.67;100.00
75775;BME280;64505;51.458;7.556;2023-11-19T09:48:55;99181.28;;;11.63;100.00
75775;BME280;64505;51.458;7.556;2023-11-19T09:50:59;99183.22;;;11.68;100.00
75775;BME280;64505;51.458;7.556;2023-11-19T09:53:01;99172.69;;;11.73;100.00
75775;BME280;64505;51.458;7.556;2023-11-19T09:55:04;99174.88;;;11.76;100.00
75775;BME280;64505;51.458;7.556;2023-11-19T09:57:06;99183.13;;;11.79;100.00
75775;BME280;64505;51.458;7.556;2023-11-19T09:59:09;99185.00;;;11.79;100.00
75775;BME280;64505;51.458;7.556;2023-11-19T10:01:14;99182.81;;;11.93;100.00
75775;BME280;64505;51.458;7.556;2023-11-19T10:03:18;99181.50;;;11.95;100.00
75775;BME280;64505;51.458;7.556;2023-11-19T10:05:24;99188.72;;;12.00;100.00
75775;BME280;64505;51.458;7.556;2023-11-19T10:07:26;99193.03;;;12.06;100.00
75775;BME280;64505;51.458;7.556;2023-11-19T10:09:27;99180.09;;;12.09;100.00
75775;BME280;64505;51.458;7.556;2023-11-19T10:11:29;99175.84;;;12.08;100.00
75775;BME280;64505;51.458;7.556;2023-11-19T10:13:31;99176.41;;;12.10;100.00
75775;BME280;64505;51.458;7.556;2023-11-19T10:15:36;99177.44;;;12.09;100.00
75775;BME280;64505;51.458;7.556;2023-11-19T10:17:38;99171.44;;;12.14;100.00
75775;BME280;64505;51.458;7.556;2023-11-19T10:19:40;99160.19;;;12.07;100.00
75775;BME280;64505;51.458;7.556;2023-11-19T10:21:42;99171.34;;;12.09;100.00
75775;BME280;64505;51.458;7.556;2023-11-19T10:23:49;99170.84;;;12.12;100.00
75775;BME280;64505;51.458;7.556;2023-11-19T10:25:53;99170.13;;;12.16;100.00
75775;BME280;64505;51.458;7.556;2023-11-19T10:27:55;99165.50;;;12.28;100.00
75775;BME280;64505;51.458;7.556;2023-11-19T10:30:00;99177.78;;;12.34;100.00
75775;BME280;64505;51.458;7.556;2023-11-19T10:32:02;99183.19;;;12.45;100.00
75775;BME280;64505;51.458;7.556;2023-11-19T10:34:27;99173.16;;;12.47;100.00
75775;BME280;64505;51.458;7.556;2023-11-19T10:36:38;99174.63;;;12.38;100.00
75775;BME280;64505;51.458;7.556;2023-11-19T10:38:56;99165.56;;;12.33;100.00
75775;BME280;64505;51.458;7.556;2023-11-19T10:40:58;99162.84;;;12.28;100.00
75775;BME280;64505;51.458;7.556;2023-11-19T10:43:03;99166.63;;;12.32;100.00
75775;BME280;64505;51.458;7.556;2023-11-19T10:45:05;99162.59;;;12.30;100.00